.
WxDataArchive / Data Records for 2006-08-20
2006-08-19 August 2006 2006-08-21

Data Records for Sunday, 20 August 2006

Time	Temp	Chill	HIndex	Humid	Dewpt	 Wind 	HiWind	WindDir	Rain 	Barom 
-----	----	-----	------	-----	-----	------	------	-------	-----	----- 
00:00	69.4	69.4	69.4	84	64.3	0	2	292	0.00	29.897 
00:05	69.3	69.3	69.3	84	64.2	0	1	292	0.00	29.897 
00:10	69.1	69.1	69.1	84	64.1	0	1	292	0.00	29.897 
00:15	69.1	69.1	69.1	85	64.4	0	1	292	0.00	29.902 
00:20	68.9	68.9	68.9	85	64.2	0	1	292	0.00	29.902 
00:25	68.8	68.8	68.8	85	64.1	0	1	292	0.00	29.902 
00:30	68.8	68.8	68.8	85	64.1	0	2	292	0.00	29.907 
00:35	68.6	68.6	68.6	85	63.9	0	1	292	0.00	29.907 
00:40	68.6	68.6	68.6	85	63.9	0	1	292	0.00	29.907 
00:45	68.6	68.6	68.6	85	63.9	0	2	292	0.00	29.909 
00:50	68.4	68.4	68.4	86	64.0	0	2	292	0.00	29.909 
00:55	68.4	68.4	68.4	86	64.0	0	1	292	0.00	29.909 
01:00	68.3	68.3	68.3	86	63.9	0	1	292	0.00	29.909 
01:05	68.3	68.3	68.3	86	63.9	0	1	292	0.00	29.909 
01:10	68.1	68.1	68.1	86	63.7	0	2	292	0.00	29.909 
01:15	68.1	68.1	68.1	86	63.7	0	1	292	0.00	29.911 
01:20	68.1	68.1	68.1	86	63.7	0	2	315	0.00	29.911 
01:25	67.9	67.9	67.9	86	63.5	0	1	315	0.00	29.911 
01:30	67.9	67.9	67.9	87	63.9	1	3	315	0.00	29.910 
01:35	67.9	67.9	67.9	87	63.9	1	2	315	0.00	29.910 
01:40	67.8	67.8	67.8	87	63.8	0	1	315	0.00	29.910 
01:45	67.8	67.8	67.8	86	63.5	1	4	292	0.00	29.910 
01:50	67.8	67.8	67.8	86	63.5	0	1	292	0.00	29.910 
01:55	67.6	67.6	67.6	86	63.3	0	2	292	0.00	29.910 
02:00	67.6	67.6	67.6	86	63.3	0	2	292	0.00	29.911 
02:05	67.4	67.4	67.4	87	63.4	0	1	292	0.00	29.911 
02:10	67.3	67.3	67.3	87	63.3	0	2	292	0.00	29.911 
02:15	67.1	67.1	67.1	87	63.1	0	1	315	0.00	29.909 
02:20	66.9	66.9	66.9	87	62.9	0	2	315	0.00	29.909 
02:25	66.9	66.9	66.9	87	62.9	0	2	315	0.00	29.909 
02:30	66.8	66.8	66.8	87	62.8	0	3	315	0.00	29.910 
02:35	66.6	66.6	66.6	88	62.9	0	2	315	0.00	29.910 
02:40	66.4	66.4	66.4	88	62.7	0	2	292	0.00	29.910 
02:45	66.4	66.4	66.4	88	62.7	0	1	292	0.00	29.912 
02:50	66.3	66.3	66.3	88	62.6	0	2	292	0.00	29.912 
02:55	66.1	66.1	66.1	88	62.4	0	2	292	0.00	29.912 
03:00	66.0	66.0	66.0	88	62.3	0	2	292	0.00	29.909 
03:05	65.8	65.8	65.8	88	62.1	0	1	315	0.00	29.909 
03:10	65.6	65.6	65.6	88	61.9	0	1	315	0.00	29.909 
03:15	65.5	65.5	65.5	88	61.8	0	1	315	0.00	29.905 
03:20	65.3	65.3	65.3	88	61.6	0	1	315	0.00	29.905 
03:25	65.2	65.2	65.2	88	61.6	0	1	315	0.00	29.905 
03:30	65.0	65.0	65.0	88	61.4	0	1	315	0.00	29.907 
03:35	64.8	64.8	64.8	88	61.2	0	1	315	0.00	29.907 
03:40	64.7	64.7	64.7	88	61.1	0	1	315	0.00	29.907 
03:45	64.7	64.7	64.7	88	61.1	0	1	315	0.00	29.909 
03:50	64.5	64.5	64.5	88	60.9	0	1	315	0.00	29.909 
03:55	64.3	64.3	64.3	88	60.7	0	1	315	0.00	29.909 
04:00	64.2	64.2	64.2	88	60.6	0	1	315	0.00	29.911 
04:05	64.0	64.0	64.0	88	60.4	0	1	315	0.00	29.911 
04:10	63.9	63.9	63.9	88	60.3	0	1	315	0.00	29.911 
04:15	63.9	63.9	63.9	87	59.9	0	2	315	0.00	29.914 
04:20	63.7	63.7	63.7	87	59.8	0	2	315	0.00	29.914 
04:25	63.5	63.5	63.5	87	59.6	0	1	292	0.00	29.914 
04:30	63.5	63.5	63.5	87	59.6	0	2	292	0.00	29.917 
04:35	63.4	63.4	63.4	87	59.5	0	1	292	0.00	29.917 
04:40	63.2	63.2	63.2	87	59.3	0	1	292	0.00	29.917 
04:45	63.2	63.2	63.2	87	59.3	0	1	292	0.00	29.918 
04:50	63.1	63.1	63.1	87	59.2	0	1	292	0.00	29.918 
04:55	62.9	62.9	62.9	87	59.0	0	2	292	0.00	29.918 
05:00	62.7	62.7	62.7	87	58.8	0	1	292	0.00	29.922 
05:05	62.7	62.7	62.7	88	59.1	0	3	292	0.00	29.922 
05:10	62.6	62.6	62.6	88	59.0	0	2	292	0.00	29.922 
05:15	62.4	62.4	62.4	88	58.8	0	1	292	0.00	29.924 
05:20	62.4	62.4	62.4	88	58.8	0	1	270	0.00	29.924 
05:25	62.3	62.3	62.3	88	58.7	0	1	270	0.00	29.924 
05:30	62.1	62.1	62.1	88	58.5	0	2	270	0.00	29.923 
05:35	62.1	62.1	62.1	88	58.5	0	2	270	0.00	29.923 
05:40	62.0	62.0	62.0	88	58.4	0	2	315	0.00	29.923 
05:45	62.0	62.0	62.0	88	58.4	0	1	315	0.00	29.928 
05:50	61.8	61.8	61.8	88	58.2	0	2	315	0.00	29.928 
05:55	61.8	61.8	61.8	88	58.2	0	2	270	0.00	29.928 
06:00	61.6	61.6	61.6	88	58.0	0	1	270	0.00	29.930 
06:05	61.6	61.6	61.6	88	58.0	0	2	270	0.00	29.930 
06:10	61.5	61.5	61.5	88	57.9	0	1	225	0.00	29.930 
06:15	61.3	61.3	61.3	88	57.7	0	3	225	0.00	29.943 
06:20	61.3	61.3	61.3	88	57.7	0	2	225	0.00	29.943 
06:25	61.3	61.3	61.3	88	57.7	0	2	225	0.00	29.943 
06:30	61.2	61.2	61.2	88	57.6	0	1	225	0.00	29.948 
06:35	61.0	61.0	61.0	88	57.4	0	1	248	0.00	29.948 
06:40	60.9	60.9	60.9	88	57.3	0	1	248	0.00	29.948 
06:45	60.9	60.9	60.9	88	57.3	0	2	248	0.00	29.954 
06:50	60.7	60.7	60.7	88	57.1	0	1	248	0.00	29.954 
06:55	60.7	60.7	60.7	88	57.1	0	2	248	0.00	29.954 
07:00	60.5	60.5	60.5	88	56.9	0	1	248	0.00	29.960 
07:05	60.5	60.5	60.5	89	57.2	0	1	248	0.00	29.960 
07:10	60.5	60.5	60.5	88	56.9	0	2	248	0.00	29.960 
07:15	60.4	60.4	60.4	88	56.8	0	2	248	0.00	29.965 
07:20	60.4	60.4	60.4	88	56.8	0	3	248	0.00	29.965 
07:25	60.4	60.4	60.4	88	56.8	0	1	248	0.00	29.965 
07:30	60.4	60.4	60.4	88	56.8	0	1	248	0.00	29.968 
07:35	60.4	60.4	60.4	88	56.8	0	2	248	0.00	29.968 
07:40	60.5	60.5	60.5	88	56.9	0	2	292	0.00	29.968 
07:45	60.7	60.7	60.7	88	57.1	0	2	292	0.00	29.974 
07:50	60.9	60.9	60.9	88	57.3	0	1	292	0.00	29.974 
07:55	61.0	61.0	61.0	87	57.1	0	2	45	0.00	29.974 
08:00	61.0	61.0	61.0	87	57.1	0	1	45	0.00	29.979 
08:05	61.2	61.2	61.2	87	57.3	0	2	45	0.00	29.979 
08:10	61.3	61.3	61.3	86	57.1	0	2	0	0.00	29.979 
08:15	61.6	61.6	61.6	85	57.0	0	2	0	0.00	29.981 
08:20	62.0	62.0	62.0	85	57.4	1	4	248	0.00	29.981 
08:25	62.3	62.3	62.3	85	57.7	0	2	248	0.00	29.981 
08:30	62.6	62.6	62.6	84	57.7	0	2	248	0.00	29.984 
08:35	62.9	62.9	62.9	83	57.7	0	2	0	0.00	29.984 
08:40	63.2	63.2	63.2	83	57.9	0	2	0	0.00	29.984 
08:45	63.4	63.4	63.4	81	57.5	1	4	315	0.00	29.992 
08:50	63.7	63.7	63.7	81	57.8	0	2	22	0.00	29.992 
08:55	64.2	64.2	64.2	79	57.5	1	3	22	0.00	29.992 
09:00	64.5	64.5	64.5	78	57.5	0	2	22	0.00	29.994 
09:05	64.5	64.5	64.5	77	57.1	1	5	68	0.00	29.994 
09:10	64.8	64.8	64.8	78	57.8	1	4	68	0.00	29.994 
09:15	65.5	65.5	65.5	75	57.4	1	5	45	0.00	29.997 
09:20	65.3	65.3	65.3	75	57.2	1	4	292	0.00	29.997 
09:25	65.2	65.2	65.2	76	57.4	1	3	315	0.00	29.997 
09:30	65.6	65.6	65.6	74	57.1	1	5	68	0.00	30.009 
09:35	65.8	65.8	65.8	74	57.3	1	5	22	0.00	30.009 
09:40	66.0	66.0	66.0	73	57.1	1	7	45	0.00	30.009 
09:45	66.1	66.1	66.1	74	57.6	1	6	270	0.00	30.015 
09:50	66.6	66.6	66.6	71	56.9	2	7	270	0.00	30.015 
09:55	67.1	67.1	67.1	74	58.5	2	5	45	0.00	30.015 
10:00	67.6	67.6	67.6	69	57.1	2	9	112	0.00	30.013 
10:05	67.9	67.9	67.9	70	57.7	1	9	90	0.00	30.013 
10:10	68.4	68.4	68.4	67	57.0	1	5	112	0.00	30.013 
10:15	68.4	68.4	68.4	67	57.0	1	5	292	0.00	30.017 
10:20	68.8	68.8	68.8	67	57.4	2	6	90	0.00	30.017 
10:25	69.1	69.1	69.1	66	57.3	1	4	135	0.00	30.017 
10:30	69.4	69.4	69.4	66	57.5	1	3	270	0.00	30.024 
10:35	69.4	69.4	69.4	63	56.2	1	4	292	0.00	30.024 
10:40	69.4	69.4	69.4	65	57.1	2	5	22	0.00	30.024 
10:45	69.8	69.8	69.8	64	57.1	1	11	90	0.00	30.026 
10:50	70.4	70.4	70.4	61	56.3	3	10	90	0.00	30.026 
10:55	70.8	70.8	70.8	62	57.1	2	6	68	0.00	30.026 
11:00	70.9	70.9	70.9	62	57.2	3	9	135	0.00	30.030 
11:05	70.6	70.6	70.6	61	56.5	1	4	315	0.00	30.030 
11:10	70.8	70.8	70.8	61	56.7	2	6	90	0.00	30.030 
11:15	71.1	71.1	71.1	62	57.4	1	6	90	0.00	30.032 
11:20	71.3	71.3	71.3	62	57.6	2	9	90	0.00	30.032 
11:25	71.1	71.1	71.1	59	56.0	3	9	112	0.00	30.032 
11:30	71.3	71.3	71.3	62	57.6	3	6	90	0.00	30.034 
11:35	71.6	71.6	71.6	59	56.5	2	8	270	0.00	30.034 
11:40	71.8	71.8	71.8	60	57.2	1	4	315	0.00	30.034 
11:45	71.3	71.3	71.3	59	56.2	1	3	45	0.00	30.036 
11:50	71.3	71.3	71.3	60	56.7	2	7	338	0.00	30.036 
11:55	72.0	72.0	72.0	58	56.4	2	5	68	0.00	30.036 
12:00	72.5	72.5	72.5	57	56.4	2	4	90	0.00	30.039 
12:05	72.3	72.3	72.3	57	56.2	2	6	135	0.00	30.039 
12:10	73.0	73.0	73.0	58	57.3	3	6	90	0.00	30.039 
12:15	73.3	73.3	73.3	55	56.1	2	6	158	0.00	30.043 
12:20	73.7	73.7	73.7	54	56.0	2	6	90	0.00	30.043 
12:25	73.9	73.9	73.9	54	56.2	2	9	90	0.00	30.043 
12:30	73.9	73.9	73.9	56	57.2	3	6	90	0.00	30.047 
12:35	73.7	73.7	73.7	60	58.9	3	6	112	0.00	30.047 
12:40	73.7	73.7	73.7	54	56.0	3	7	135	0.00	30.047 
12:45	73.9	73.9	73.9	56	57.2	3	9	112	0.00	30.047 
12:50	74.0	74.0	74.0	55	56.8	2	5	90	0.00	30.047 
12:55	73.7	73.7	73.7	58	58.0	1	4	68	0.00	30.047 
13:00	73.5	73.5	73.5	56	56.8	1	4	315	0.00	30.047 
13:05	73.7	73.7	73.7	55	56.5	1	4	315	0.00	30.047 
13:10	73.9	73.9	73.9	58	58.2	0	2	270	0.00	30.047 
13:15	74.4	74.4	74.4	52	55.6	1	6	248	0.00	30.046 
13:20	74.0	74.0	74.0	55	56.8	2	6	68	0.00	30.046 
13:25	73.7	73.7	73.7	57	57.5	2	5	112	0.00	30.046 
13:30	73.3	73.3	73.3	60	58.6	1	2	338	0.00	30.048 
13:35	74.0	74.0	74.0	56	57.3	2	5	90	0.00	30.048 
13:40	74.2	74.2	74.2	53	56.0	1	4	292	0.00	30.048 
13:45	74.4	74.4	74.4	54	56.7	2	4	112	0.00	30.042 
13:50	74.0	74.0	74.0	54	56.3	1	3	135	0.00	30.042 
13:55	73.7	73.7	73.7	55	56.5	2	5	112	0.00	30.042 
14:00	74.2	74.2	74.2	55	57.0	1	5	112	0.00	30.041 
14:05	74.0	74.0	74.0	53	55.8	1	4	90	0.00	30.041 
14:10	74.0	74.0	74.0	52	55.2	1	4	90	0.00	30.041 
14:15	74.6	74.6	74.6	54	56.8	2	9	112	0.00	30.044 
14:20	75.3	75.3	77.6	58	59.5	1	4	315	0.00	30.044 
14:25	75.4	75.4	77.8	50	55.4	3	7	90	0.00	30.044 
14:30	76.0	76.0	78.1	56	59.2	1	3	90	0.00	30.040 
14:35	76.1	76.1	78.1	51	56.6	2	6	90	0.00	30.040 
14:40	76.1	76.1	78.1	55	58.7	2	6	90	0.00	30.040 
14:45	76.5	76.5	78.4	52	57.5	1	3	90	0.00	30.039 
14:50	76.1	76.1	78.1	48	55.0	1	4	90	0.00	30.039 
14:55	76.1	76.1	78.1	50	56.1	1	3	315	0.00	30.039 
15:00	76.7	76.7	78.5	54	58.8	1	3	112	0.00	30.037 
15:05	76.7	76.7	78.5	53	58.3	1	4	90	0.00	30.037 
15:10	76.7	76.7	78.4	51	57.2	1	3	90	0.00	30.037 
15:15	76.8	76.8	78.5	50	56.7	2	4	90	0.00	30.035 
15:20	76.8	76.8	78.5	50	56.7	2	5	90	0.00	30.035 
15:25	76.7	76.7	78.4	50	56.6	3	6	112	0.00	30.035 
15:30	77.0	77.0	78.6	49	56.4	1	4	112	0.00	30.027 
15:35	77.4	77.4	78.8	50	57.3	1	5	68	0.00	30.027 
15:40	77.4	77.4	78.8	50	57.3	0	2	68	0.00	30.027 
15:45	76.8	76.8	78.5	49	56.2	1	3	68	0.00	30.026 
15:50	77.2	77.2	78.7	50	57.1	0	1	112	0.00	30.026 
15:55	77.4	77.4	78.8	50	57.3	1	4	90	0.00	30.026 
16:00	77.9	77.9	79.1	48	56.6	2	4	112	0.00	30.023 
16:05	77.6	77.6	78.9	49	56.9	2	7	90	0.00	30.023 
16:10	77.2	77.2	78.7	50	57.1	2	6	90	0.00	30.023 
16:15	76.8	76.8	78.6	54	58.9	1	5	112	0.00	30.025 
16:20	77.2	77.2	78.7	50	57.1	1	5	0	0.00	30.025 
16:25	77.4	77.4	78.8	50	57.3	1	2	338	0.00	30.025 
16:30	77.4	77.4	78.8	48	56.1	0	2	338	0.00	30.025 
16:35	77.2	77.2	78.7	48	56.0	1	2	315	0.00	30.025 
16:40	77.6	77.6	78.9	48	56.3	2	5	90	0.00	30.025 
16:45	77.6	77.6	79.0	50	57.5	1	5	90	0.00	30.026 
16:50	77.9	77.9	79.2	50	57.7	0	2	90	0.00	30.026 
16:55	78.3	78.3	79.5	51	58.7	0	3	0	0.00	30.026 
17:00	78.5	78.5	79.3	45	55.4	1	4	270	0.00	30.022 
17:05	78.3	78.3	79.3	47	56.4	1	3	270	0.00	30.022 
17:10	78.1	78.1	79.0	44	54.4	1	3	90	0.00	30.022 
17:15	78.1	78.1	79.2	48	56.8	1	4	112	0.00	30.021 
17:20	78.1	78.1	79.1	46	55.6	1	4	90	0.00	30.021 
17:25	77.9	77.9	79.1	48	56.6	1	3	90	0.00	30.021 
17:30	77.7	77.7	78.9	48	56.4	2	5	112	0.00	30.024 
17:35	77.4	77.4	78.7	46	55.0	1	5	112	0.00	30.024 
17:40	77.4	77.4	78.8	48	56.1	0	3	112	0.00	30.024 
17:45	77.2	77.2	78.7	49	56.5	0	2	292	0.00	30.023 
17:50	77.2	77.2	78.7	48	56.0	1	4	292	0.00	30.023 
17:55	77.0	77.0	78.5	47	55.2	1	4	45	0.00	30.023 
18:00	77.0	77.0	78.5	48	55.8	1	3	315	0.00	30.025 
18:05	77.0	77.0	78.6	49	56.4	1	4	270	0.00	30.025 
18:10	77.0	77.0	78.6	50	56.9	1	3	45	0.00	30.025 
18:15	77.0	77.0	78.5	47	55.2	0	2	68	0.00	30.027 
18:20	76.7	76.7	78.4	48	55.5	1	3	112	0.00	30.027 
18:25	76.7	76.7	78.4	48	55.5	0	2	112	0.00	30.027 
18:30	76.7	76.7	78.4	48	55.5	0	2	225	0.00	30.027 
18:35	76.7	76.7	78.4	49	56.1	0	3	270	0.00	30.027 
18:40	76.5	76.5	78.3	48	55.3	0	1	270	0.00	30.027 
18:45	76.3	76.3	78.2	47	54.6	0	2	292	0.00	30.030 
18:50	76.0	76.0	78.0	48	54.9	0	2	292	0.00	30.030 
18:55	75.8	75.8	78.0	48	54.7	0	2	292	0.00	30.030 
19:00	75.8	75.8	78.0	50	55.8	0	2	270	0.00	30.029 
19:05	75.6	75.6	77.9	50	55.6	0	1	270	0.00	30.029 
19:10	75.4	75.4	77.8	50	55.4	0	2	158	0.00	30.029 
19:15	75.3	75.3	77.7	50	55.4	0	2	112	0.00	30.027 
19:20	75.1	75.1	77.7	50	55.2	0	2	22	0.00	30.027 
19:25	74.9	74.9	74.9	51	55.5	0	2	22	0.00	30.027 
19:30	74.7	74.7	74.7	52	55.9	0	1	22	0.00	30.026 
19:35	74.6	74.6	74.6	52	55.8	0	2	22	0.00	30.026 
19:40	74.4	74.4	74.4	52	55.6	0	1	22	0.00	30.026 
19:45	74.2	74.2	74.2	52	55.4	0	2	248	0.00	30.027 
19:50	73.9	73.9	73.9	53	55.7	0	1	248	0.00	30.027 
19:55	73.7	73.7	73.7	54	56.0	0	1	248	0.00	30.027 
20:00	73.3	73.3	73.3	54	55.6	0	2	248	0.00	30.026 
20:05	73.0	73.0	73.0	55	55.9	0	0	---	0.00	30.026 
20:10	72.8	72.8	72.8	56	56.2	0	1	248	0.00	30.026 
20:15	72.5	72.5	72.5	57	56.4	0	1	248	0.00	30.024 
20:20	72.1	72.1	72.1	57	56.0	0	0	---	0.00	30.024 
20:25	71.8	71.8	71.8	58	56.2	0	0	---	0.00	30.024 
20:30	71.3	71.3	71.3	58	55.7	0	0	---	0.00	30.027 
20:35	70.9	70.9	70.9	58	55.4	0	0	---	0.00	30.027 
20:40	70.4	70.4	70.4	60	55.8	0	0	---	0.00	30.027 
20:45	70.1	70.1	70.1	61	56.0	0	0	---	0.00	30.031 
20:50	69.6	69.6	69.6	62	56.0	0	0	---	0.00	30.031 
20:55	69.1	69.1	69.1	62	55.5	0	0	---	0.00	30.031 
21:00	68.8	68.8	68.8	63	55.7	0	0	---	0.00	30.035 
21:05	68.3	68.3	68.3	64	55.6	0	0	---	0.00	30.035 
21:10	67.8	67.8	67.8	65	55.6	0	0	---	0.00	30.035 
21:15	67.4	67.4	67.4	67	56.1	0	0	---	0.00	30.035 
21:20	67.1	67.1	67.1	67	55.8	0	0	---	0.00	30.035 
21:25	66.8	66.8	66.8	68	55.9	0	0	---	0.00	30.035 
21:30	66.4	66.4	66.4	69	55.9	0	0	---	0.00	30.043 
21:35	66.1	66.1	66.1	69	55.6	0	0	---	0.00	30.043 
21:40	65.8	65.8	65.8	71	56.1	0	0	---	0.00	30.043 
21:45	65.5	65.5	65.5	72	56.2	0	0	---	0.00	30.047 
21:50	65.2	65.2	65.2	73	56.3	0	0	---	0.00	30.047 
21:55	65.0	65.0	65.0	74	56.5	0	0	---	0.00	30.047 
22:00	64.7	64.7	64.7	74	56.2	0	0	---	0.00	30.048 
22:05	64.3	64.3	64.3	74	55.8	0	0	---	0.00	30.048 
22:10	64.2	64.2	64.2	75	56.1	0	0	---	0.00	30.048 
22:15	63.9	63.9	63.9	76	56.2	0	0	---	0.00	30.049 
22:20	63.5	63.5	63.5	77	56.2	0	0	---	0.00	30.049 
22:25	63.4	63.4	63.4	78	56.4	0	0	---	0.00	30.049 
22:30	63.1	63.1	63.1	78	56.1	0	0	---	0.00	30.055 
22:35	62.9	62.9	62.9	80	56.6	0	0	---	0.00	30.055 
22:40	62.6	62.6	62.6	80	56.3	0	0	---	0.00	30.055 
22:45	62.3	62.3	62.3	81	56.4	0	0	---	0.00	30.052 
22:50	62.1	62.1	62.1	81	56.2	0	0	---	0.00	30.052 
22:55	61.8	61.8	61.8	82	56.2	0	0	---	0.00	30.052 
23:00	61.6	61.6	61.6	82	56.0	0	0	---	0.00	30.052 
23:05	61.3	61.3	61.3	83	56.1	0	0	---	0.00	30.052 
23:10	61.2	61.2	61.2	83	56.0	0	0	---	0.00	30.052 
23:15	60.9	60.9	60.9	83	55.7	0	0	---	0.00	30.054 
23:20	60.7	60.7	60.7	84	55.8	0	0	---	0.00	30.054 
23:25	60.5	60.5	60.5	84	55.6	0	0	---	0.00	30.054 
23:30	60.4	60.4	60.4	85	55.9	0	0	---	0.00	30.058 
23:35	60.2	60.2	60.2	85	55.7	0	0	---	0.00	30.058 
23:40	60.1	60.1	60.1	86	55.9	0	0	---	0.00	30.058 
23:45	59.9	59.9	59.9	86	55.7	0	0	---	0.00	30.062 
23:50	59.8	59.8	59.8	87	55.9	0	0	---	0.00	30.062 
23:55	59.6	59.6	59.6	87	55.7	0	0	---	0.00	30.062 

CoCoRaHS
IN-AL-39
A2 Web Hosting
Creative Commons License
GoDaddy
Look for:

loaded 2017-10-17 00:24:23 • last modified 2010-11-18 10:43:29
Privacy PolicyDisclaimer
• wx.awcolley.com is powered by PmWiki v.2002016 •
• all content (unless otherwise noted) © 2017 A W Colley